createdAt,value
2018-11-26T11:18:33.507Z,41.941
2018-11-26T11:18:49.775Z,41.84
2018-11-26T11:19:06.109Z,41.415
2018-11-26T11:19:22.402Z,41.209
2018-11-26T11:19:39.642Z,41.178
2018-11-26T11:19:55.939Z,41.113
2018-11-26T11:20:12.221Z,41.092
2018-11-26T11:20:28.507Z,41.037
2018-11-26T11:20:44.868Z,41.062
2018-11-26T11:21:01.161Z,41.141
2018-11-26T11:21:17.454Z,41.142
2018-11-26T11:21:33.746Z,41.131
2018-11-26T11:21:50.001Z,41.168
2018-11-26T11:22:06.330Z,40.959
2018-11-26T11:22:22.595Z,40.927
2018-11-26T11:22:38.882Z,40.927
2018-11-26T11:22:55.164Z,40.995
2018-11-26T11:23:11.458Z,40.95
2018-11-26T11:23:27.732Z,40.939
2018-11-26T11:23:44.256Z,40.973
2018-11-26T11:24:00.585Z,41.029
2018-11-26T11:24:16.903Z,40.921
2018-11-26T11:24:33.160Z,41.021
2018-11-26T11:24:49.409Z,41.133
2018-11-26T11:25:05.729Z,41.069
2018-11-26T11:25:22.045Z,40.992
2018-11-26T11:25:38.323Z,40.916
2018-11-26T11:25:54.600Z,40.817
2018-11-26T11:26:10.904Z,40.785
2018-11-26T11:26:28.287Z,40.675
2018-11-26T11:26:44.573Z,40.743
2018-11-26T11:27:01.110Z,40.854
2018-11-26T11:27:17.713Z,40.81
2018-11-26T11:27:33.991Z,40.866
2018-11-26T11:27:50.487Z,40.878
2018-11-26T11:28:06.776Z,41.014
2018-11-26T11:28:23.069Z,40.916
2018-11-26T11:28:39.661Z,40.938
2018-11-26T11:28:56.465Z,40.916
2018-11-26T11:29:13.814Z,40.861
2018-11-26T11:29:30.703Z,40.764
2018-11-26T11:29:47.726Z,40.775
2018-11-26T11:30:04.577Z,40.8
2018-11-26T11:30:21.350Z,40.822
2018-11-26T11:30:38.045Z,40.757
2018-11-26T11:30:54.721Z,40.746
2018-11-26T11:31:11.450Z,40.692
2018-11-26T11:31:27.849Z,40.859
2018-11-26T11:31:44.256Z,40.871
2018-11-26T11:32:01.148Z,40.739
2018-11-26T11:32:17.737Z,40.706
2018-11-26T11:32:34.382Z,40.673
2018-11-26T11:32:50.899Z,40.607
2018-11-26T11:33:41.487Z,40.83
2018-11-26T11:33:58.189Z,40.996
2018-11-26T11:34:14.506Z,41.03
2018-11-26T11:34:30.952Z,41.021
2018-11-26T11:34:47.586Z,42.854
2018-11-26T11:35:04.043Z,41.996
2018-11-26T11:35:20.710Z,41.721
2018-11-26T11:35:37.097Z,41.412
2018-11-26T11:35:53.913Z,41.094
2018-11-26T11:36:10.626Z,40.961
2018-11-26T11:36:27.120Z,40.939
2018-11-26T11:36:43.512Z,40.785
2018-11-26T11:36:59.978Z,40.697
2018-11-26T11:37:17.007Z,40.676
2018-11-26T11:37:33.510Z,40.588
2018-11-26T11:37:50.310Z,40.544
2018-11-26T11:38:06.741Z,40.491
2018-11-26T11:38:23.160Z,40.502
2018-11-26T11:38:40.046Z,40.614
2018-11-26T11:38:56.466Z,40.604
2018-11-26T11:39:13.247Z,40.516
2018-11-26T11:39:30.194Z,40.562
2018-11-26T11:39:46.622Z,40.506
2018-11-26T11:40:03.759Z,40.586
2018-11-26T11:40:20.326Z,40.575
2018-11-26T11:40:36.624Z,40.831
2018-11-26T11:40:52.907Z,40.799
2018-11-26T11:41:09.346Z,40.901
2018-11-26T11:41:25.775Z,40.727
2018-11-26T11:41:42.896Z,41.4
2018-11-26T11:41:59.719Z,41.082
2018-11-26T11:42:16.400Z,41.361
2018-11-26T11:42:32.869Z,41.041
2018-11-26T11:42:49.461Z,40.91
2018-11-26T11:43:05.720Z,40.978
2018-11-26T11:43:22.655Z,40.702
2018-11-26T11:43:39.305Z,40.668
2018-11-26T11:43:55.931Z,42.072
2018-11-26T11:44:12.309Z,41.167
2018-11-26T11:44:29.088Z,40.847
2018-11-26T11:44:45.575Z,40.86
2018-11-26T11:45:02.259Z,40.795
2018-11-26T11:45:18.728Z,40.541
2018-11-26T11:45:36.165Z,40.344
2018-11-26T11:45:52.771Z,40.322
2018-11-26T11:46:09.295Z,40.289
2018-11-26T11:46:25.877Z,40.202
2018-11-26T11:46:42.574Z,40.213
2018-11-26T11:46:59.485Z,40.568
2018-11-26T11:47:15.899Z,40.425
2018-11-26T11:47:32.355Z,40.337
2018-11-26T11:47:48.795Z,40.314
2018-11-26T11:48:06.060Z,40.404
2018-11-26T11:48:23.359Z,40.339
2018-11-26T11:48:40.011Z,40.252
2018-11-26T11:48:56.723Z,40.385
2018-11-26T11:49:13.068Z,40.45
2018-11-26T11:49:30.708Z,40.263
2018-11-26T11:49:47.269Z,40.219
2018-11-26T11:50:04.907Z,40.243
2018-11-26T11:50:21.368Z,40.442
2018-11-26T11:50:37.672Z,40.345
2018-11-26T11:50:54.091Z,40.423
2018-11-26T11:51:10.886Z,40.535
2018-11-26T11:51:27.453Z,40.303
2018-11-26T11:51:43.881Z,40.236
2018-11-26T11:52:00.867Z,40.636
2018-11-26T11:52:17.807Z,40.249
2018-11-26T11:52:34.241Z,40.161
2018-11-26T11:52:50.612Z,40.404
2018-11-26T11:53:07.026Z,40.384
2018-11-26T11:53:23.865Z,40.295
2018-11-26T11:53:40.553Z,40.296
2018-11-26T11:53:57.472Z,40.274
2018-11-26T11:54:13.897Z,40.197
2018-11-26T11:54:30.878Z,40.176
2018-11-26T11:54:47.790Z,40.143
2018-11-26T11:55:04.150Z,40.121
2018-11-26T11:55:20.541Z,40.132
2018-11-26T11:55:37.030Z,40.122
2018-11-26T11:55:53.583Z,40.156
2018-11-26T11:56:10.090Z,40.322
2018-11-26T11:56:26.511Z,40.403
2018-11-26T11:56:43.304Z,40.403
2018-11-26T11:56:59.837Z,40.327
2018-11-26T11:57:16.205Z,40.35
2018-11-26T11:57:32.581Z,40.274
2018-11-26T11:57:49.007Z,40.13
2018-11-26T11:58:05.420Z,40.254
2018-11-26T11:58:22.022Z,40.155
2018-11-26T11:58:38.496Z,40.21
2018-11-26T11:58:55.400Z,40.133
2018-11-26T11:59:11.973Z,40.167
2018-11-26T11:59:28.376Z,40.232
2018-11-26T11:59:45.130Z,40.188
2018-11-26T12:00:01.617Z,40.233
2018-11-26T12:00:18.175Z,40.269
2018-11-26T12:00:34.628Z,40.169
2018-11-26T12:00:51.060Z,40.236
2018-11-26T12:01:10.631Z,40.248
2018-11-26T12:01:27.501Z,40.306
2018-11-26T12:01:44.040Z,40.24
2018-11-26T12:02:00.358Z,40.24
2018-11-26T12:02:16.754Z,40.252
2018-11-26T12:02:33.210Z,40.208
2018-11-26T12:02:49.675Z,40.22
2018-11-26T12:03:06.233Z,40.254
2018-11-26T12:03:22.810Z,40.088
2018-11-26T12:03:39.178Z,40.021
2018-11-26T12:03:55.576Z,40.055
2018-11-26T12:04:12.297Z,40.223
2018-11-26T12:04:28.707Z,40.19
2018-11-26T12:04:45.089Z,39.981
2018-11-26T12:05:01.631Z,39.938
2018-11-26T12:05:17.904Z,39.894
2018-11-26T12:05:34.153Z,39.926
2018-11-26T12:05:50.433Z,40.083
2018-11-26T12:06:06.735Z,40.038
2018-11-26T12:06:23.077Z,40.007
2018-11-26T12:06:39.324Z,40.052
2018-11-26T12:06:55.617Z,39.986
2018-11-26T12:07:11.896Z,40.119
2018-11-26T12:07:28.170Z,40.442
2018-11-26T12:07:44.450Z,41.164
2018-11-26T12:08:00.721Z,40.832
2018-11-26T12:08:16.973Z,40.535
2018-11-26T12:08:33.243Z,40.581
2018-11-26T12:08:49.504Z,40.195
2018-11-26T12:09:05.798Z,40.142
2018-11-26T12:09:22.064Z,40.175
2018-11-26T12:09:38.316Z,40.13
2018-11-26T12:09:54.704Z,40.084
2018-11-26T12:10:11.237Z,40.208
2018-11-26T12:10:27.483Z,39.987
2018-11-26T12:10:43.757Z,39.91
2018-11-26T12:11:00.018Z,39.92
2018-11-26T12:11:16.244Z,39.977
2018-11-26T12:11:32.497Z,39.911
2018-11-26T12:11:48.803Z,39.979
2018-11-26T12:12:05.071Z,39.979
2018-11-26T12:12:21.335Z,39.958
2018-11-26T12:12:37.604Z,39.804
2018-11-26T12:12:53.867Z,39.759
2018-11-26T12:13:10.152Z,39.726
2018-11-26T12:13:26.417Z,39.704
2018-11-26T12:13:42.712Z,39.66
2018-11-26T12:13:59.007Z,39.771
2018-11-26T12:14:15.246Z,39.761
2018-11-26T12:14:31.540Z,39.861
2018-11-26T12:14:47.784Z,39.751
2018-11-26T12:15:04.064Z,39.852
2018-11-26T12:15:20.592Z,39.775
2018-11-26T12:15:36.853Z,39.71
2018-11-26T12:15:53.170Z,39.853
2018-11-26T12:16:09.443Z,39.853
2018-11-26T12:16:25.708Z,39.799
2018-11-26T12:16:42.013Z,39.821
2018-11-26T12:16:58.292Z,39.865
2018-11-26T12:17:14.653Z,39.867
2018-11-26T12:17:30.923Z,39.834
2018-11-26T12:17:47.182Z,39.835
2018-11-26T12:18:03.461Z,39.803
2018-11-26T12:18:19.743Z,39.893
2018-11-26T12:18:36.115Z,39.783
2018-11-26T12:18:52.383Z,39.661
2018-11-26T12:19:08.640Z,39.616
2018-11-26T12:19:25.152Z,39.695
2018-11-26T12:19:41.462Z,39.375
2018-11-26T12:19:57.712Z,39.774
2018-11-26T12:20:13.964Z,39.686
2018-11-26T12:20:30.508Z,39.809
2018-11-26T12:20:46.813Z,39.255
2018-11-26T12:21:03.080Z,38.271
2018-11-26T12:21:19.427Z,38.857
2018-11-26T12:21:35.693Z,38.206
2018-11-26T12:21:51.963Z,37.94
2018-11-26T12:22:08.247Z,38.239
2018-11-26T12:22:24.563Z,38.053
2018-11-26T12:22:40.938Z,38.406
2018-11-26T12:22:57.227Z,38.339
2018-11-26T12:23:13.497Z,38.46
2018-11-26T12:23:29.738Z,38.538
2018-11-26T12:23:46.013Z,38.56
2018-11-26T12:24:02.358Z,38.636
2018-11-26T12:24:18.666Z,38.614
2018-11-26T12:24:34.944Z,38.659
2018-11-26T12:24:51.213Z,38.815
2018-11-26T12:25:07.460Z,38.716
2018-11-26T12:25:23.709Z,38.95
2018-11-26T12:25:40.327Z,38.839
2018-11-26T12:25:56.594Z,38.784
2018-11-26T12:26:12.860Z,38.64
2018-11-26T12:26:29.138Z,38.719
2018-11-26T12:26:45.427Z,38.697
2018-11-26T12:27:01.707Z,38.696
2018-11-26T12:27:17.989Z,38.695
2018-11-26T12:27:34.338Z,38.751
2018-11-26T12:27:50.624Z,38.94
2018-11-26T12:28:06.894Z,38.774
2018-11-26T12:28:23.176Z,38.719
2018-11-26T12:28:39.440Z,38.619
2018-11-26T12:28:55.749Z,38.898
2018-11-26T12:29:12.014Z,38.756
2018-11-26T12:29:28.273Z,38.745
2018-11-26T12:29:44.567Z,38.745
2018-11-26T12:30:00.809Z,38.636
2018-11-26T12:30:17.068Z,38.68
2018-11-26T12:30:33.402Z,38.836
2018-11-26T12:30:49.947Z,38.748
2018-11-26T12:31:06.219Z,38.703
2018-11-26T12:31:22.463Z,38.703
2018-11-26T12:31:38.772Z,38.805
2018-11-26T12:31:55.088Z,38.728
2018-11-26T12:32:11.358Z,38.983
2018-11-26T12:32:27.600Z,38.817
2018-11-26T12:32:43.869Z,38.828
2018-11-26T12:33:00.126Z,38.808
2018-11-26T12:33:16.410Z,38.796
2018-11-26T12:33:32.666Z,38.773
2018-11-26T12:33:48.971Z,38.742
2018-11-26T12:34:05.274Z,38.798
2018-11-26T12:34:21.529Z,38.787
2018-11-26T12:34:38.105Z,39.154
2018-11-26T12:34:54.354Z,39.012
2018-11-26T12:35:10.693Z,39.057
2018-11-26T12:35:26.942Z,38.834
2018-11-26T12:35:43.264Z,38.656
2018-11-26T12:35:59.777Z,38.612
2018-11-26T12:36:16.029Z,38.646
2018-11-26T12:36:32.302Z,38.646
2018-11-26T12:36:48.607Z,38.69
2018-11-26T12:37:04.846Z,38.68
2018-11-26T12:37:21.083Z,38.747
2018-11-26T12:37:37.353Z,38.804
2018-11-26T12:37:53.596Z,38.737
2018-11-26T12:38:09.865Z,38.661
2018-11-26T12:38:26.120Z,38.707
2018-11-26T12:38:42.388Z,38.809
2018-11-26T12:38:58.655Z,38.854
2018-11-26T12:39:14.932Z,38.611
2018-11-26T12:39:31.250Z,38.59
2018-11-26T12:39:47.529Z,38.656
2018-11-26T12:40:03.807Z,38.778
2018-11-26T12:40:20.138Z,38.736
2018-11-26T12:40:36.510Z,38.525
2018-11-26T12:40:52.778Z,38.681
2018-11-26T12:41:09.294Z,38.648
2018-11-26T12:41:25.547Z,38.615
2018-11-26T12:41:41.805Z,38.581
2018-11-26T12:41:58.076Z,38.515
2018-11-26T12:42:14.315Z,38.548
2018-11-26T12:42:30.625Z,38.792
2018-11-26T12:42:46.903Z,38.638
2018-11-26T12:43:03.187Z,38.638
2018-11-26T12:43:19.458Z,38.615
2018-11-26T12:43:35.765Z,38.516
2018-11-26T12:43:52.061Z,38.672
2018-11-26T12:44:08.325Z,38.728
2018-11-26T12:44:24.587Z,38.762
2018-11-26T12:44:40.827Z,38.773
2018-11-26T12:44:57.060Z,39.541
2018-11-26T12:45:13.392Z,39.464
2018-11-26T12:45:29.732Z,39.742
2018-11-26T12:45:46.061Z,39.11
2018-11-26T12:46:02.339Z,39
2018-11-26T12:46:18.911Z,39.067
2018-11-26T12:46:35.218Z,38.856
2018-11-26T12:46:51.485Z,38.913
2018-11-26T12:47:07.731Z,38.879
2018-11-26T12:47:24.011Z,38.89
2018-11-26T12:47:40.265Z,38.856
2018-11-26T12:47:56.510Z,38.812
2018-11-26T12:48:12.774Z,38.779
2018-11-26T12:48:29.066Z,38.701
2018-11-26T12:48:45.389Z,38.657
2018-11-26T12:49:01.670Z,38.602
2018-11-26T12:49:18.069Z,38.579
2018-11-26T12:49:34.346Z,38.702
2018-11-26T12:49:50.872Z,38.713
2018-11-26T12:50:07.158Z,38.657
2018-11-26T12:50:23.425Z,38.692
2018-11-26T12:50:39.687Z,38.681
2018-11-26T12:50:55.946Z,38.614
2018-11-26T12:51:12.180Z,38.683
2018-11-26T12:51:28.748Z,38.738
2018-11-26T12:51:45.001Z,38.684
2018-11-26T12:52:01.252Z,38.661
2018-11-26T12:52:17.533Z,39.14
2018-11-26T12:52:33.862Z,38.685
2018-11-26T12:52:50.208Z,38.807
2018-11-26T12:53:06.520Z,38.752
2018-11-26T12:53:22.815Z,38.819
2018-11-26T12:53:39.047Z,39.098
2018-11-26T12:53:55.293Z,38.756
2018-11-26T12:54:11.552Z,38.732
2018-11-26T12:54:27.828Z,38.711
2018-11-26T12:54:44.142Z,38.744
2018-11-26T12:55:00.414Z,38.755
2018-11-26T12:55:16.685Z,39.045
2018-11-26T12:55:33.016Z,39.18
2018-11-26T12:55:49.262Z,38.835
2018-11-26T12:56:05.525Z,38.747
2018-11-26T12:56:21.771Z,38.725
2018-11-26T12:56:38.290Z,38.591
2018-11-26T12:56:54.592Z,38.525
2018-11-26T12:57:10.847Z,38.537
2018-11-26T12:57:27.108Z,38.526
2018-11-26T12:57:43.379Z,38.493
2018-11-26T12:57:59.662Z,38.526
2018-11-26T12:58:15.908Z,38.516
2018-11-26T12:58:32.246Z,38.684
2018-11-26T12:58:48.556Z,38.595
2018-11-26T12:59:04.796Z,38.694
2018-11-26T12:59:21.050Z,38.64
2018-11-26T12:59:37.335Z,38.694
2018-11-26T12:59:53.581Z,38.618
2018-11-26T13:00:09.895Z,38.628
2018-11-26T13:00:26.181Z,38.629
2018-11-26T13:00:42.439Z,38.719
2018-11-26T13:00:58.670Z,38.763
2018-11-26T13:01:14.910Z,38.774
2018-11-26T13:01:31.198Z,38.786
2018-11-26T13:01:47.760Z,38.82
2018-11-26T13:02:04.042Z,38.776
2018-11-26T13:02:20.282Z,38.766
2018-11-26T13:02:36.538Z,38.921
2018-11-26T13:02:52.790Z,38.745
2018-11-26T13:03:09.073Z,38.567
2018-11-26T13:03:25.324Z,39.425
2018-11-26T13:03:41.577Z,38.658
2018-11-26T13:03:57.864Z,38.248
2018-11-26T13:04:14.112Z,37.849
2018-11-26T13:04:30.388Z,37.76
2018-11-26T13:04:46.630Z,37.738
2018-11-26T13:05:03.175Z,37.716
2018-11-26T13:05:19.429Z,37.503
2018-11-26T13:05:35.697Z,37.436
2018-11-26T13:05:51.965Z,37.58
2018-11-26T13:06:08.286Z,37.324
2018-11-26T13:06:24.673Z,37.19
2018-11-26T13:06:40.930Z,37.412
2018-11-26T13:06:57.486Z,37.401
2018-11-26T13:07:13.740Z,37.179
2018-11-26T13:07:30.072Z,37.058
2018-11-26T13:07:46.369Z,36.801
2018-11-26T13:08:02.744Z,37.023
2018-11-26T13:08:18.993Z,36.956
2018-11-26T13:08:35.261Z,36.8
2018-11-26T13:08:51.509Z,36.376
2018-11-26T13:09:07.765Z,36.696
2018-11-26T13:09:23.994Z,36.543
2018-11-26T13:09:40.252Z,36.299
2018-11-26T13:09:56.519Z,36.53
2018-11-26T13:10:12.756Z,36.475
2018-11-26T13:10:29.056Z,36.454
2018-11-26T13:10:45.305Z,36.23
2018-11-26T13:11:01.611Z,36.275
2018-11-26T13:11:17.909Z,35.931
2018-11-26T13:11:34.147Z,35.82
2018-11-26T13:11:50.374Z,35.787
2018-11-26T13:12:06.943Z,35.955
2018-11-26T13:12:23.214Z,36.021
2018-11-26T13:12:39.456Z,35.377
2018-11-26T13:12:55.718Z,35.476
2018-11-26T13:13:11.969Z,35.577
2018-11-26T13:13:28.242Z,37.555
2018-11-26T13:13:44.482Z,35.769
2018-11-26T13:14:00.720Z,35.601
2018-11-26T13:14:17.084Z,35.19
2018-11-26T13:14:33.350Z,35.233
2018-11-26T13:14:49.580Z,35.545
2018-11-26T13:15:05.832Z,35.188
2018-11-26T13:15:22.145Z,35.276
2018-11-26T13:15:38.421Z,35.32
2018-11-26T13:15:54.687Z,35.289
2018-11-26T13:16:10.928Z,35.21
2018-11-26T13:16:27.242Z,35.144
2018-11-26T13:16:43.497Z,35.3
2018-11-26T13:16:59.749Z,34.888
2018-11-26T13:17:16.252Z,34.832
2018-11-26T13:17:32.548Z,35.01
2018-11-26T13:17:48.798Z,34.978
2018-11-26T13:18:05.047Z,34.733
2018-11-26T13:18:21.297Z,34.832
2018-11-26T13:18:37.681Z,34.898
2018-11-26T13:18:53.963Z,34.82
2018-11-26T13:19:10.212Z,34.898
2018-11-26T13:19:26.497Z,34.709
2018-11-26T13:19:42.757Z,34.73
2018-11-26T13:19:59.036Z,34.599
2018-11-26T13:20:15.539Z,34.532
2018-11-26T13:20:31.839Z,34.767
2018-11-26T13:20:48.253Z,34.488
2018-11-26T13:21:04.509Z,34.567
2018-11-26T13:21:20.851Z,34.644
2018-11-26T13:21:37.113Z,34.499
2018-11-26T13:21:53.418Z,34.6
2018-11-26T13:22:09.676Z,34.431
2018-11-26T13:22:26.236Z,34.553
2018-11-26T13:22:42.527Z,34.441
2018-11-26T13:22:58.773Z,35.041
2018-11-26T13:23:15.031Z,34.464
2018-11-26T13:23:31.325Z,34.764
2018-11-26T13:23:47.655Z,34.485
2018-11-26T13:24:03.916Z,34.208
2018-11-26T13:24:20.284Z,34.376
2018-11-26T13:24:36.525Z,34.365
2018-11-26T13:24:52.774Z,34.632
2018-11-26T13:25:09.028Z,34.266
2018-11-26T13:25:25.326Z,34.409
2018-11-26T13:25:42.115Z,34.419
2018-11-26T13:25:59.147Z,34.319
2018-11-26T13:26:15.397Z,34.397
2018-11-26T13:26:31.675Z,34.318
2018-11-26T13:26:47.942Z,34.241
2018-11-26T13:27:04.205Z,34.553
2018-11-26T13:27:20.490Z,34.363
2018-11-26T13:27:37.138Z,34.287
2018-11-26T13:27:53.435Z,34.142
2018-11-26T13:28:09.691Z,34.109
2018-11-26T13:28:25.961Z,34.266
2018-11-26T13:28:42.234Z,34.055
2018-11-26T13:28:58.490Z,34.022
2018-11-26T13:29:14.727Z,33.922
2018-11-26T13:29:30.991Z,33.765
2018-11-26T13:29:47.263Z,33.918
2018-11-26T13:30:03.509Z,34.052
2018-11-26T13:30:19.759Z,34.329
2018-11-26T13:30:36.058Z,33.916
2018-11-26T13:30:52.332Z,33.893
2018-11-26T13:31:08.586Z,33.924
2018-11-26T13:31:24.858Z,33.868
2018-11-26T13:31:41.125Z,33.869
2018-11-26T13:31:57.393Z,34.226
2018-11-26T13:32:13.652Z,34.06
2018-11-26T13:32:29.947Z,34.792
2018-11-26T13:32:46.520Z,33.982
2018-11-26T13:33:02.820Z,34.381
2018-11-26T13:33:19.072Z,34.338
2018-11-26T13:33:35.326Z,34.038
2018-11-26T13:33:51.579Z,34.474
2018-11-26T13:34:08.170Z,34.229
2018-11-26T13:34:24.476Z,33.707
2018-11-26T13:34:40.746Z,34.297
2018-11-26T13:34:56.999Z,34.687
2018-11-26T13:35:13.235Z,35.775
2018-11-26T13:35:29.756Z,34.109
2018-11-26T13:35:46.027Z,35.888
2018-11-26T13:36:02.366Z,34.5
2018-11-26T13:36:18.646Z,33.755
2018-11-26T13:36:34.916Z,33.865
2018-11-26T13:36:51.264Z,33.811
2018-11-26T13:37:07.526Z,33.877
2018-11-26T13:37:23.832Z,34.356
2018-11-26T13:37:40.142Z,34.334
2018-11-26T13:37:56.666Z,34.136
2018-11-26T13:38:12.912Z,33.902
2018-11-26T13:38:29.166Z,33.714
2018-11-26T13:38:45.407Z,34.414
2018-11-26T13:39:01.724Z,33.916
2018-11-26T13:39:18.013Z,33.706
2018-11-26T13:39:34.305Z,33.582
2018-11-26T13:39:50.569Z,33.604
2018-11-26T13:40:06.826Z,34.938
2018-11-26T13:40:23.150Z,33.871
2018-11-26T13:40:39.449Z,33.861
2018-11-26T13:40:55.711Z,34.118
2018-11-26T13:41:11.956Z,33.604
2018-11-26T13:41:28.214Z,33.784
2018-11-26T13:41:44.533Z,33.729
2018-11-26T13:42:00.769Z,33.583
2018-11-26T13:42:17.057Z,33.772
2018-11-26T13:42:33.319Z,33.904
2018-11-26T13:42:49.586Z,33.482
2018-11-26T13:43:06.118Z,33.338
2018-11-26T13:43:22.382Z,33.426
2018-11-26T13:43:38.650Z,33.604
2018-11-26T13:43:54.895Z,33.282
2018-11-26T13:44:11.147Z,33.35
2018-11-26T13:44:27.374Z,33.35
2018-11-26T13:44:43.616Z,33.315
2018-11-26T13:44:59.843Z,33.439
2018-11-26T13:45:16.122Z,33.094
2018-11-26T13:45:32.347Z,33.583
2018-11-26T13:45:48.601Z,33.172
2018-11-26T13:46:04.932Z,33.16
2018-11-26T13:46:21.225Z,33.463
2018-11-26T13:46:37.481Z,33.408
2018-11-26T13:46:53.752Z,33.142
2018-11-26T13:47:10.025Z,33.229
2018-11-26T13:47:26.258Z,33.062
2018-11-26T13:47:42.491Z,33.118
2018-11-26T13:47:58.742Z,33.029
2018-11-26T13:48:15.256Z,33.019
2018-11-26T13:48:31.552Z,32.997
2018-11-26T13:48:47.824Z,33.218
2018-11-26T13:49:04.102Z,33.274
2018-11-26T13:49:20.431Z,33.253
2018-11-26T13:49:36.717Z,33.197
2018-11-26T13:49:52.966Z,33.176
2018-11-26T13:50:09.244Z,33.141
2018-11-26T13:50:25.511Z,32.986
2018-11-26T13:50:42.045Z,33.587
2018-11-26T13:50:58.345Z,32.875
2018-11-26T13:51:14.589Z,33.109
2018-11-26T13:51:30.857Z,33.12
2018-11-26T13:51:47.158Z,33.043
2018-11-26T13:52:03.427Z,32.853
2018-11-26T13:52:19.730Z,32.853
2018-11-26T13:52:36.037Z,32.953
2018-11-26T13:52:52.287Z,33.063
2018-11-26T13:53:08.604Z,32.873
2018-11-26T13:53:25.192Z,33.286
2018-11-26T13:53:41.474Z,33.175
2018-11-26T13:53:57.707Z,33.221
2018-11-26T13:54:13.970Z,33.053
2018-11-26T13:54:30.214Z,32.842
2018-11-26T13:54:46.567Z,33.22
2018-11-26T13:55:02.801Z,32.965
2018-11-26T13:55:19.076Z,32.888
2018-11-26T13:55:35.359Z,33.055
2018-11-26T13:55:51.627Z,32.956
2018-11-26T13:56:07.884Z,33.257
2018-11-26T13:56:24.129Z,32.991
2018-11-26T13:56:40.374Z,33.024
2018-11-26T13:56:56.606Z,32.936
2018-11-26T13:57:12.858Z,33.914
2018-11-26T13:57:29.113Z,33.047
2018-11-26T13:57:45.383Z,33.047
2018-11-26T13:58:01.644Z,32.802
2018-11-26T13:58:17.952Z,32.891
2018-11-26T13:58:34.481Z,32.602
2018-11-26T13:58:50.749Z,32.689
2018-11-26T13:59:07.006Z,32.788
2018-11-26T13:59:23.274Z,32.802
2018-11-26T13:59:39.509Z,32.911
2018-11-26T13:59:55.770Z,33.591
2018-11-26T14:00:12.001Z,33.603
2018-11-26T14:00:28.260Z,32.958
2018-11-26T14:00:44.525Z,32.792
2018-11-26T14:01:00.820Z,33.126
2018-11-26T14:01:17.189Z,32.925
2018-11-26T14:01:33.532Z,32.68
2018-11-26T14:01:49.789Z,32.747
2018-11-26T14:02:06.031Z,32.67
2018-11-26T14:02:22.340Z,32.726
2018-11-26T14:02:38.827Z,32.759
2018-11-26T14:02:55.082Z,32.804
2018-11-26T14:03:11.340Z,32.826
2018-11-26T14:03:27.590Z,32.715
2018-11-26T14:03:44.111Z,32.479
2018-11-26T14:04:00.393Z,32.713
2018-11-26T14:04:16.685Z,32.514
2018-11-26T14:04:32.951Z,32.603
2018-11-26T14:04:49.175Z,32.68
2018-11-26T14:05:05.411Z,32.725
2018-11-26T14:05:21.666Z,32.703
2018-11-26T14:05:37.917Z,32.581
2018-11-26T14:05:54.427Z,32.659
2018-11-26T14:06:10.680Z,32.614
2018-11-26T14:06:26.934Z,32.771
2018-11-26T14:06:43.171Z,32.659
2018-11-26T14:06:59.412Z,32.992
2018-11-26T14:07:15.737Z,32.67
2018-11-26T14:07:32.015Z,32.759
2018-11-26T14:07:48.303Z,32.936
2018-11-26T14:08:04.567Z,33.148
2018-11-26T14:08:20.808Z,32.981
2018-11-26T14:08:37.063Z,32.67
2018-11-26T14:08:53.570Z,32.647
2018-11-26T14:09:09.827Z,32.67
2018-11-26T14:09:26.098Z,32.626
2018-11-26T14:09:42.389Z,32.604
2018-11-26T14:09:59.028Z,32.55
2018-11-26T14:10:15.334Z,32.428
2018-11-26T14:10:31.580Z,32.583
2018-11-26T14:10:47.861Z,33.007
2018-11-26T14:11:04.186Z,32.562
2018-11-26T14:11:20.421Z,32.506
2018-11-26T14:11:36.704Z,32.685
2018-11-26T14:11:53.001Z,32.573
2018-11-26T14:12:09.261Z,32.53
2018-11-26T14:12:25.503Z,32.563
2018-11-26T14:12:41.816Z,32.519
2018-11-26T14:12:58.077Z,33.232
2018-11-26T14:13:14.376Z,32.699
2018-11-26T14:13:30.699Z,32.704
2018-11-26T14:13:46.954Z,32.525
2018-11-26T14:14:03.483Z,32.436
2018-11-26T14:14:19.740Z,32.681
2018-11-26T14:14:35.981Z,32.368
2018-11-26T14:14:52.297Z,32.256
2018-11-26T14:15:08.562Z,32.479
2018-11-26T14:15:24.818Z,32.456
2018-11-26T14:15:41.157Z,32.356
2018-11-26T14:15:57.544Z,32.301
2018-11-26T14:16:15.458Z,32.399
2018-11-26T14:16:31.733Z,33.002
2018-11-26T14:16:47.990Z,32.479
2018-11-26T14:17:04.229Z,32.591
2018-11-26T14:17:20.483Z,32.313
2018-11-26T14:17:36.908Z,32.158
2018-11-26T14:17:53.157Z,32.236
2018-11-26T14:18:09.417Z,32.334
2018-11-26T14:18:25.684Z,32.3
2018-11-26T14:18:42.036Z,33.823
2018-11-26T14:18:58.364Z,32.534
2018-11-26T14:19:14.932Z,32.534
2018-11-26T14:19:31.189Z,32.801
2018-11-26T14:19:47.461Z,32.925
2018-11-26T14:20:03.689Z,32.458
2018-11-26T14:20:19.949Z,32.325
2018-11-26T14:20:36.245Z,32.169
2018-11-26T14:20:52.519Z,32.392
2018-11-26T14:21:09.113Z,32.223
2018-11-26T14:21:25.340Z,32.402
2018-11-26T14:21:41.598Z,32.259
2018-11-26T14:21:57.881Z,32.234
2018-11-26T14:22:14.170Z,32.28
2018-11-26T14:22:30.444Z,32.323
2018-11-26T14:22:46.751Z,32.534
2018-11-26T14:23:03.008Z,32.312
2018-11-26T14:23:19.275Z,32.354
2018-11-26T14:23:35.613Z,32.52
2018-11-26T14:23:51.877Z,32.365
2018-11-26T14:24:08.125Z,32.478
2018-11-26T14:24:24.640Z,32.41
2018-11-26T14:24:40.877Z,32.509
2018-11-26T14:24:57.133Z,32.553
2018-11-26T14:25:13.456Z,32.52
2018-11-26T14:25:29.749Z,32.634
2018-11-26T14:25:45.988Z,32.645
2018-11-26T14:26:02.328Z,32.277
2018-11-26T14:26:18.584Z,32.355
2018-11-26T14:26:34.857Z,32.289
2018-11-26T14:26:51.108Z,32.469
2018-11-26T14:27:07.356Z,32.425
2018-11-26T14:27:23.628Z,32.57
2018-11-26T14:27:39.937Z,32.516
2018-11-26T14:27:56.242Z,33.028
2018-11-26T14:28:12.539Z,32.516
2018-11-26T14:28:28.776Z,32.717
2018-11-26T14:28:45.088Z,32.327
2018-11-26T14:29:01.372Z,32.472
2018-11-26T14:29:17.612Z,32.638
2018-11-26T14:29:34.184Z,32.527
2018-11-26T14:29:50.445Z,32.438
2018-11-26T14:30:06.692Z,32.306
2018-11-26T14:30:22.933Z,32.248
2018-11-26T14:30:39.265Z,32.203
2018-11-26T14:30:55.521Z,32.503
2018-11-26T14:31:11.795Z,32.358
2018-11-26T14:31:28.056Z,32.291
2018-11-26T14:31:44.345Z,32.413
2018-11-26T14:32:00.581Z,32.391
2018-11-26T14:32:16.848Z,32.39
2018-11-26T14:32:33.127Z,32.39
2018-11-26T14:32:49.358Z,32.378
2018-11-26T14:33:05.621Z,32.501
2018-11-26T14:33:21.974Z,32.499
2018-11-26T14:33:38.258Z,32.54
2018-11-26T14:33:54.488Z,32.72
2018-11-26T14:34:10.769Z,32.364
2018-11-26T14:34:27.029Z,32.708
2018-11-26T14:34:43.599Z,32.388
2018-11-26T14:34:59.891Z,32.366
2018-11-26T14:35:16.245Z,32.434
2018-11-26T14:35:32.600Z,32.312
2018-11-26T14:35:48.831Z,32.233
2018-11-26T14:36:05.095Z,32.4
2018-11-26T14:36:21.606Z,32.444
2018-11-26T14:36:37.848Z,32.434
2018-11-26T14:36:54.103Z,32.479
2018-11-26T14:37:10.405Z,32.29
2018-11-26T14:37:26.670Z,32.413
2018-11-26T14:37:42.916Z,32.325
2018-11-26T14:37:59.166Z,32.402
2018-11-26T14:38:15.442Z,32.605
2018-11-26T14:38:31.693Z,32.538
2018-11-26T14:38:47.943Z,32.527
2018-11-26T14:39:04.206Z,32.495
2018-11-26T14:39:20.457Z,32.495
2018-11-26T14:39:36.726Z,32.761
2018-11-26T14:39:53.272Z,32.704
2018-11-26T14:40:09.570Z,32.694
2018-11-26T14:40:25.795Z,32.583
2018-11-26T14:40:42.097Z,32.315
2018-11-26T14:40:58.354Z,32.293
2018-11-26T14:41:14.635Z,32.592
2018-11-26T14:41:30.875Z,32.447
2018-11-26T14:41:47.144Z,32.349
2018-11-26T14:42:03.378Z,32.415
2018-11-26T14:42:19.622Z,32.56
2018-11-26T14:42:35.888Z,32.481
2018-11-26T14:42:52.464Z,32.671
2018-11-26T14:43:08.753Z,32.47
2018-11-26T14:43:25.210Z,33.013
2018-11-26T14:43:41.481Z,32.569
2018-11-26T14:43:57.709Z,32.646